EHVL  Vlieland Heliport

Add Bookmark

Vlieland, The Netherlands

Status
Operational
Latitude Longitude
53° 17' 47" N 5° 5' 8" E
53.296665 5.085833
Local (DST + 2) UTC (GMT + 1)
Jan 26, 2015 01:16 Jan 26, 2015 00:16
Sunrise-Sunset Local UTC
Begin Civil Twilight 07:52 06:52
Sunrise 08:30 07:30
Sunset 05:13 16:13
End Civil Twilight 05:52 16:52

Current Weather

METAR Observed IFR
EHVL 260003Z AUTO 25015KT 6000 BR FEW004 BKN005 OVC007 06/06 Q1022 YLO Mon, Jan 26, 2015 @ 00:03 UTC
(13 Minutes ago)
Instrument Flight Rules
Wind Visibility Clouds Conditions
250° at 15 knots (28 kph) 6000 meters
  • Few at 400' AGL
  • Broken at 500' AGL
  • Overcast at 700' AGL
  • Mist
Temperatures Readings Precipitation
Current Temp 6°C (43°F)
Dewpoint 6°C (43°F)
Humidity 100%
Altimeter 30.18"Hg
Sea Level Pressure 1022mb
Field Elevation 16.4'
None Recorded

Additional weather within a 92.6km radius of EHVL

Map ICAO Location
EHMG 36.5km N (347°)
EHLW 45.6km E (099°)
EHKD 46.1km S (206°)
EHMA 61.5km E (068°)
EHQE 75.4km W (236°)

24 Hour Weather History

Loading
-

24 Hour Weather Graphs

Loading
-

CheckWX.com is intended as a tool to help pilots better visualize weather data. It is not intended as a substitute for an official weather briefing obtained from a Flight Service Station. CheckWX.com does not meet the FAA requirements for an official pre-flight weather briefing. Therefore, it's important that pilots still call and obtain an official FSS pre-flight weather briefing.